Time;durP1;ratioP1;P1;durP2;ratioP2;P2;SDS_P1;SDS_P2;PMS_P1;PMS_P2;Temp;Humidity;BMP_temperature;BMP_pressure;BME280_temperature;BME280_humidity;BME280_pressure;Samples;Min_cycle;Max_cycle;Signal;HPM_P1;HPM_P2
2022/03/22 00:00:24;;;;;;;;;;;;;;;17.01;45.81;103182.59;6313158;22;19910;-81
2022/03/22 00:02:49;;;;;;;;;;;;;;;17.01;45.64;103175.66;6341264;22;19921;-81
2022/03/22 00:05:15;;;;;;;;;;;;;;;16.99;45.83;103182.53;6340912;22;19993;-82
2022/03/22 00:07:41;;;;;;;;;;;;;;;17.00;45.79;103181.69;6287186;22;19921;-81
2022/03/22 00:10:07;;;;;;;;;;;;;;;17.01;45.83;103178.25;6312770;22;19989;-82
2022/03/22 00:12:32;;;;;;;;;;;;;;;17.00;45.82;103179.09;6313068;22;19914;-82
2022/03/22 00:14:58;;;;;;;;;;;;;;;17.00;45.94;103176.47;6313296;22;19925;-82
2022/03/22 00:17:23;;;;;;;;;;;;;;;17.01;45.64;103174.78;6312786;22;20293;-81
2022/03/22 00:19:49;;;;;;;;;;;;;;;17.01;45.94;103169.59;6340667;22;19907;-81
2022/03/22 00:22:15;;;;;;;;;;;;;;;17.01;45.58;103174.78;6313244;22;19911;-81
2022/03/22 00:24:40;;;;;;;;;;;;;;;16.99;45.66;103172.13;6313117;22;19914;-82
2022/03/22 00:27:05;;;;;;;;;;;;;;;16.99;45.79;103173.84;6313048;22;20239;-81
2022/03/22 00:29:31;;;;;;;;;;;;;;;16.98;45.67;103178.16;6313118;22;20242;-82
2022/03/22 00:31:56;;;;;;;;;;;;;;;16.98;45.64;103174.69;6286810;22;19911;-82
2022/03/22 00:34:23;;;;;;;;;;;;;;;16.98;45.59;103178.16;6313075;22;19934;-82
2022/03/22 00:36:49;;;;;;;;;;;;;;;16.98;45.48;103179.88;6313437;22;19917;-82
2022/03/22 00:39:15;;;;;;;;;;;;;;;16.98;45.73;103175.56;6312526;22;19977;-82
2022/03/22 00:41:40;;;;;;;;;;;;;;;16.98;45.61;103179.88;6312967;22;19911;-81
2022/03/22 00:44:06;;;;;;;;;;;;;;;16.99;45.64;103186.88;6312625;22;20071;-81
2022/03/22 00:46:31;;;;;;;;;;;;;;;16.98;45.80;103185.06;6340595;22;19907;-82
2022/03/22 00:48:58;;;;;;;;;;;;;;;16.98;45.66;103187.69;6312943;22;19989;-81
2022/03/22 00:51:24;;;;;;;;;;;;;;;16.97;45.53;103185.94;6313640;22;20341;-82
2022/03/22 00:53:51;;;;;;;;;;;;;;;16.97;45.74;103178.13;6313432;22;19942;-82
2022/03/22 00:56:17;;;;;;;;;;;;;;;16.96;45.68;103182.47;6347903;22;20339;-82
2022/03/22 00:58:43;;;;;;;;;;;;;;;16.97;45.73;103184.19;6343374;22;19964;-82
2022/03/22 01:01:08;;;;;;;;;;;;;;;16.96;45.67;103185.06;6315634;22;19917;-82
2022/03/22 01:03:33;;;;;;;;;;;;;;;16.95;45.52;103183.28;6295139;22;19915;-82
2022/03/22 01:06:01;;;;;;;;;;;;;;;16.96;45.75;103187.66;6294692;22;19917;-83
2022/03/22 01:08:29;;;;;;;;;;;;;;;16.96;45.54;103187.66;6317560;22;19911;-82
2022/03/22 01:10:54;;;;;;;;;;;;;;;16.96;45.61;103186.75;6290410;22;19911;-81
2022/03/22 01:13:21;;;;;;;;;;;;;;;16.95;45.60;103185.88;6342930;22;19914;-81
2022/03/22 01:15:47;;;;;;;;;;;;;;;16.95;45.51;103175.47;6342763;22;20265;-81
2022/03/22 01:18:12;;;;;;;;;;;;;;;16.96;45.58;103184.16;6314794;22;19925;-81
2022/03/22 01:20:43;;;;;;;;;;;;;;;16.95;45.49;103182.41;6315107;22;19963;-82
2022/03/22 01:23:09;;;;;;;;;;;;;;;16.95;45.42;103180.66;6314898;22;19917;-82
2022/03/22 01:25:35;;;;;;;;;;;;;;;16.95;45.60;103175.47;6314473;22;19907;-81
2022/03/22 01:28:02;;;;;;;;;;;;;;;16.94;45.68;103184.13;6342613;22;19929;-81
2022/03/22 01:30:28;;;;;;;;;;;;;;;16.95;45.47;103187.59;6289216;22;19914;-81
2022/03/22 01:32:54;;;;;;;;;;;;;;;16.93;45.64;103177.13;6342255;22;20371;-81
2022/03/22 01:35:21;;;;;;;;;;;;;;;16.94;45.62;103178.00;6315111;22;19942;-81
2022/03/22 01:37:47;;;;;;;;;;;;;;;16.93;45.53;103177.13;6342113;22;19929;-81
2022/03/22 01:40:13;;;;;;;;;;;;;;;16.94;45.51;103181.53;6314648;22;19922;-81
2022/03/22 01:42:38;;;;;;;;;;;;;;;16.93;45.37;103174.53;6314579;22;20270;-81
2022/03/22 01:45:04;;;;;;;;;;;;;;;16.93;45.34;103178.88;6314656;22;20243;-81
2022/03/22 01:47:29;;;;;;;;;;;;;;;16.94;45.53;103167.63;6314173;22;20315;-80
2022/03/22 01:49:55;;;;;;;;;;;;;;;16.93;45.52;103165.88;6314274;22;19989;-81
2022/03/22 01:52:21;;;;;;;;;;;;;;;16.93;45.61;103163.25;6341961;22;19918;-80
2022/03/22 01:54:49;;;;;;;;;;;;;;;16.91;45.33;103163.19;6342030;22;20269;-81
2022/03/22 01:57:14;;;;;;;;;;;;;;;16.91;45.41;103165.81;6314650;22;20299;-81
2022/03/22 01:59:39;;;;;;;;;;;;;;;16.92;45.67;103164.06;6341870;22;19911;-82
2022/03/22 02:07:34;;;;;;;;;;;;;;;16.92;45.47;103156.28;6341594;22;19975;-76
2022/03/22 02:09:59;;;;;;;;;;;;;;;16.91;45.41;103163.19;6288139;22;19911;-77
2022/03/22 02:12:26;;;;;;;;;;;;;;;16.92;45.45;103154.59;6314239;22;19911;-77
2022/03/22 02:14:52;;;;;;;;;;;;;;;16.91;45.32;103154.53;6314208;22;19935;-76
2022/03/22 02:17:18;;;;;;;;;;;;;;;16.91;45.35;103151.94;6341536;22;19910;-76
2022/03/22 02:19:43;;;;;;;;;;;;;;;16.88;45.47;103150.13;6288128;22;19911;-76
2022/03/22 02:22:12;;;;;;;;;;;;;;;16.90;45.42;103153.66;6314248;22;19931;-76
2022/03/22 02:24:40;;;;;;;;;;;;;;;16.89;45.42;103145.78;6341173;22;19967;-76
2022/03/22 02:27:07;;;;;;;;;;;;;;;16.88;45.48;103154.44;6340966;22;19933;-76
2022/03/22 02:29:32;;;;;;;;;;;;;;;16.88;45.63;103154.44;6342254;22;20323;-77
2022/03/22 02:31:57;;;;;;;;;;;;;;;16.88;45.36;103155.31;6313714;22;19946;-76
2022/03/22 02:34:23;;;;;;;;;;;;;;;16.88;45.52;103149.25;6288123;22;19915;-76
2022/03/22 02:36:48;;;;;;;;;;;;;;;16.88;45.27;103144.91;6341626;22;19944;-77
2022/03/22 02:39:13;;;;;;;;;;;;;;;16.87;45.73;103145.75;6314834;22;19911;-76
2022/03/22 02:41:38;;;;;;;;;;;;;;;16.86;45.30;103147.47;6314581;22;19990;-77
2022/03/22 02:44:04;;;;;;;;;;;;;;;16.87;45.40;103150.94;6314065;22;20243;-77
2022/03/22 02:46:29;;;;;;;;;;;;;;;16.87;45.41;103145.75;6315198;22;19960;-76
2022/03/22 02:48:55;;;;;;;;;;;;;;;16.86;45.29;103150.06;6315868;22;19907;-76
2022/03/22 02:51:20;;;;;;;;;;;;;;;16.85;45.45;103145.72;6318235;22;19969;-76
2022/03/22 02:53:46;;;;;;;;;;;;;;;16.85;45.42;103150.00;6346208;22;19992;-77
2022/03/22 02:56:12;;;;;;;;;;;;;;;16.84;45.53;103143.06;6317219;22;19907;-76
2022/03/22 02:58:37;;;;;;;;;;;;;;;16.84;45.51;103148.25;6314424;22;19907;-76
2022/03/22 03:01:03;;;;;;;;;;;;;;;16.84;45.39;103143.06;6313936;22;20315;-76
2022/03/22 03:03:28;;;;;;;;;;;;;;;16.84;45.41;103146.53;6314034;22;19914;-76
2022/03/22 03:05:53;;;;;;;;;;;;;;;16.85;45.46;103143.13;6288232;22;19936;-77
2022/03/22 03:08:19;;;;;;;;;;;;;;;16.84;45.45;103148.25;6287664;22;20024;-76
2022/03/22 03:10:46;;;;;;;;;;;;;;;16.84;45.45;103148.25;6341548;22;20314;-76
2022/03/22 03:13:11;;;;;;;;;;;;;;;16.83;45.33;103147.38;6313263;22;19917;-77
2022/03/22 03:15:37;;;;;;;;;;;;;;;16.82;45.52;103145.59;6313864;22;19946;-76
2022/03/22 03:18:02;;;;;;;;;;;;;;;16.83;45.53;103146.47;6313033;22;19919;-76
2022/03/22 03:20:28;;;;;;;;;;;;;;;16.83;45.44;103136.97;6341273;22;19906;-76
2022/03/22 03:22:53;;;;;;;;;;;;;;;16.82;45.53;103145.59;6287811;22;20327;-76
2022/03/22 03:25:19;;;;;;;;;;;;;;;16.84;45.44;103148.25;6287650;22;20319;-76
2022/03/22 03:27:44;;;;;;;;;;;;;;;16.82;45.63;103137.81;6341613;22;19910;-76
2022/03/22 03:30:10;;;;;;;;;;;;;;;16.83;45.37;103138.69;6314067;22;19913;-77
2022/03/22 03:32:36;;;;;;;;;;;;;;;16.83;45.63;103138.69;6313402;22;19959;-76
2022/03/22 03:35:02;;;;;;;;;;;;;;;16.82;45.46;103140.41;6313378;22;20011;-76
2022/03/22 03:37:29;;;;;;;;;;;;;;;16.82;45.36;103139.53;6313101;22;19913;-76
2022/03/22 03:39:55;;;;;;;;;;;;;;;16.81;45.59;103142.94;6313950;22;19929;-76
2022/03/22 03:42:20;;;;;;;;;;;;;;;16.81;45.60;103142.94;6287583;22;20459;-76
2022/03/22 03:47:30;;;;;;;;;;;;;;;16.82;45.44;103142.13;6341098;22;19914;-76
2022/03/22 03:49:57;;;;;;;;;;;;;;;16.81;45.40;103150.75;6312909;22;19906;-76
2022/03/22 03:52:27;;;;;;;;;;;;;;;16.79;45.71;103153.28;6313118;22;19929;-76
2022/03/22 03:54:53;;;;;;;;;;;;;;;16.79;45.39;103155.88;6313010;22;19910;-76
2022/03/22 03:57:19;;;;;;;;;;;;;;;16.81;45.57;103150.75;6287205;22;19911;-76
2022/03/22 03:59:44;;;;;;;;;;;;;;;16.79;45.47;103157.63;6340665;22;19906;-77
2022/03/22 04:02:10;;;;;;;;;;;;;;;16.79;45.55;103152.41;6313345;22;19907;-76
2022/03/22 04:04:36;;;;;;;;;;;;;;;16.78;45.54;103151.50;6313459;22;19971;-81
2022/03/22 04:07:02;;;;;;;;;;;;;;;16.79;45.41;103155.00;6342745;22;20351;-82
2022/03/22 04:09:27;;;;;;;;;;;;;;;16.79;45.49;103152.41;6315489;22;19940;-82
2022/03/22 04:11:53;;;;;;;;;;;;;;;16.81;45.38;103161.16;6346930;22;19918;-81
2022/03/22 04:14:19;;;;;;;;;;;;;;;16.78;45.43;103158.44;6319829;22;19913;-82
2022/03/22 04:16:45;;;;;;;;;;;;;;;16.79;45.55;103155.00;6346763;22;19942;-82
2022/03/22 04:19:11;;;;;;;;;;;;;;;16.79;45.59;103152.41;6314315;22;19923;-81
2022/03/22 04:21:37;;;;;;;;;;;;;;;16.78;45.42;103155.84;6314344;22;19915;-82
2022/03/22 04:24:05;;;;;;;;;;;;;;;16.77;45.56;103157.56;6342111;22;19915;-82
2022/03/22 04:26:31;;;;;;;;;;;;;;;16.78;45.62;103158.44;6314769;22;19910;-82
2022/03/22 04:32:41;;;;;;;;;;;;;;;16.77;45.36;103160.16;6324496;22;20028;-82
2022/03/22 04:34:41;;;;;;;;;;;;;;;16.77;45.55;103156.69;6343131;22;20306;-80
2022/03/22 04:37:08;;;;;;;;;;;;;;;16.77;45.55;103161.88;6314374;22;19917;-82
2022/03/22 04:39:34;;;;;;;;;;;;;;;16.76;45.40;103165.31;6313111;22;19907;-81
2022/03/22 04:42:00;;;;;;;;;;;;;;;16.77;45.54;103156.69;6341400;22;19906;-81
2022/03/22 04:44:29;;;;;;;;;;;;;;;16.77;45.47;103159.28;6313105;22;19910;-82
2022/03/22 04:46:56;;;;;;;;;;;;;;;16.76;45.50;103160.97;6313011;22;19906;-81
2022/03/22 04:49:22;;;;;;;;;;;;;;;16.77;45.44;103156.69;6313099;22;19951;-76
2022/03/22 04:57:15;;;;;;;;;;;;;;;16.75;45.40;103167.03;6317537;22;19918;-81
2022/03/22 04:59:42;;;;;;;;;;;;;;;16.75;45.50;103158.34;6313325;22;20084;-81
2022/03/22 05:02:08;;;;;;;;;;;;;;;16.74;45.42;103162.66;6313687;22;19989;-81
2022/03/22 05:04:33;;;;;;;;;;;;;;;16.74;45.38;103170.44;6314177;22;19917;-81
2022/03/22 05:06:59;;;;;;;;;;;;;;;16.73;45.43;103168.69;6315663;22;19910;-82
2022/03/22 05:09:24;;;;;;;;;;;;;;;16.74;45.37;103169.56;6316817;22;19955;-82
2022/03/22 05:11:49;;;;;;;;;;;;;;;16.74;45.68;103178.25;6341979;22;19913;-81
2022/03/22 05:14:14;;;;;;;;;;;;;;;16.73;45.66;103166.09;6313438;22;19914;-81
2022/03/22 05:16:40;;;;;;;;;;;;;;;16.74;45.31;103174.78;6340908;22;19911;-81
2022/03/22 05:19:05;;;;;;;;;;;;;;;16.74;45.43;103178.25;6340229;22;19938;-81
2022/03/22 05:21:31;;;;;;;;;;;;;;;16.72;45.68;103179.91;6312950;22;19917;-82
2022/03/22 05:23:57;;;;;;;;;;;;;;;16.73;45.76;103181.69;6313490;22;20425;-82
2022/03/22 05:26:24;;;;;;;;;;;;;;;16.74;45.50;103182.56;6313115;22;19929;-82
2022/03/22 05:28:49;;;;;;;;;;;;;;;16.73;45.51;103188.63;6340652;22;20365;-82
2022/03/22 05:31:14;;;;;;;;;;;;;;;16.73;45.45;103184.28;6312728;22;19942;-81
2022/03/22 05:33:40;;;;;;;;;;;;;;;16.73;45.36;103186.03;6287694;22;19938;-81
2022/03/22 05:36:06;;;;;;;;;;;;;;;16.73;45.46;103186.03;6341446;22;19998;-82
2022/03/22 05:38:31;;;;;;;;;;;;;;;16.73;45.73;103188.63;6342052;22;19922;-81
2022/03/22 05:41:02;;;;;;;;;;;;;;;16.72;45.44;103187.72;6340157;22;20243;-80
2022/03/22 05:43:27;;;;;;;;;;;;;;;16.72;45.64;103184.25;6313971;22;19964;-81
2022/03/22 05:45:53;;;;;;;;;;;;;;;16.72;45.79;103189.44;6341968;22;19910;-80
2022/03/22 05:48:18;;;;;;;;;;;;;;;16.72;45.59;103195.50;6314774;22;20283;-80
2022/03/22 05:50:44;;;;;;;;;;;;;;;16.74;45.45;103190.38;6341708;22;20322;-80
2022/03/22 05:53:12;;;;;;;;;;;;;;;16.73;45.51;103192.09;6288524;22;19918;-80
2022/03/22 05:55:38;;;;;;;;;;;;;;;16.75;45.68;103194.75;6342079;22;20220;-81
2022/03/22 05:58:04;;;;;;;;;;;;;;;16.74;45.60;103187.78;6315004;22;19913;-81
2022/03/22 06:00:29;;;;;;;;;;;;;;;16.74;45.51;103195.56;6314864;22;19906;-81
2022/03/22 06:02:55;;;;;;;;;;;;;;;16.73;45.43;103192.09;6315227;22;19993;-81
2022/03/22 06:05:21;;;;;;;;;;;;;;;16.76;45.60;103201.72;6289093;22;19917;-80
2022/03/22 06:07:46;;;;;;;;;;;;;;;16.75;45.42;103194.75;6320283;22;19907;-81
2022/03/22 06:10:12;;;;;;;;;;;;;;;16.76;45.51;103199.09;6348475;22;20293;-84
2022/03/22 06:12:43;;;;;;;;;;;;;;;16.77;45.49;103206.09;6348993;22;19907;-79
2022/03/22 06:24:42;;;;;;;;;;;;;;;16.95;45.68;103211.88;6362505;22;19939;-85
2022/03/22 06:27:08;;;;;;;;;;;;;;;16.96;45.37;103215.34;6312589;22;19910;-83
2022/03/22 06:29:33;;;;;;;;;;;;;;;16.96;45.49;103224.06;6324394;22;19933;-84
2022/03/22 06:32:00;;;;;;;;;;;;;;;16.98;45.43;103222.38;6297624;22;19911;-85
2022/03/22 06:34:26;;;;;;;;;;;;;;;16.99;45.36;103225.88;6321180;22;19953;-84
2022/03/22 06:36:51;;;;;;;;;;;;;;;16.99;45.19;103226.75;6318339;22;19989;-84
2022/03/22 06:39:17;;;;;;;;;;;;;;;17.01;45.59;103226.81;6293618;22;20376;-86
2022/03/22 06:41:42;;;;;;;;;;;;;;;17.01;45.24;103222.47;6319079;22;19953;-82
2022/03/22 06:44:07;;;;;;;;;;;;;;;17.01;45.29;103225.09;6341140;22;19946;-79
2022/03/22 06:46:33;;;;;;;;;;;;;;;17.02;45.16;103237.25;6287853;22;19917;-79
2022/03/22 06:48:58;;;;;;;;;;;;;;;17.05;45.05;103226.94;6287705;22;19948;-79
2022/03/22 06:51:23;;;;;;;;;;;;;;;17.08;44.98;103230.47;6287435;22;19911;-78
2022/03/22 06:53:49;;;;;;;;;;;;;;;17.12;44.86;103227.13;6286998;22;19911;-79
2022/03/22 06:56:14;;;;;;;;;;;;;;;17.21;44.93;103227.41;6313683;22;19956;-80
2022/03/22 06:58:40;;;;;;;;;;;;;;;17.50;44.39;103230.84;6287750;22;19910;-79
2022/03/22 07:01:05;;;;;;;;;;;;;;;17.72;43.73;103231.47;6313230;22;20246;-79
2022/03/22 07:03:30;;;;;;;;;;;;;;;17.83;43.47;103228.38;6340561;22;19950;-79
2022/03/22 07:05:56;;;;;;;;;;;;;;;17.94;43.25;103227.75;6287259;22;20315;-79
2022/03/22 07:08:24;;;;;;;;;;;;;;;17.98;43.06;103227.00;6312879;22;19914;-79
2022/03/22 07:11:49;;;;;;;;;;;;;;;18.02;43.17;103234.94;6287038;22;19914;-80
2022/03/22 07:13:34;;;;;;;;;;;;;;;18.13;42.65;103229.16;6317530;22;19911;-79
2022/03/22 07:16:00;;;;;;;;;;;;;;;18.17;42.55;103234.47;6287097;22;19963;-79
2022/03/22 07:18:26;;;;;;;;;;;;;;;18.23;42.66;103236.38;6312987;22;19942;-79
2022/03/22 07:20:51;;;;;;;;;;;;;;;18.29;42.52;103239.09;6340087;22;19930;-78
2022/03/22 07:23:17;;;;;;;;;;;;;;;18.35;42.40;103231.44;6286983;22;19975;-79
2022/03/22 07:25:42;;;;;;;;;;;;;;;18.39;42.15;103240.25;6287168;22;19918;-79
2022/03/22 07:28:07;;;;;;;;;;;;;;;18.45;42.06;103237.78;6313020;22;20290;-79
2022/03/22 07:30:32;;;;;;;;;;;;;;;18.50;41.89;103241.38;6287276;22;19934;-80
2022/03/22 07:32:58;;;;;;;;;;;;;;;18.55;42.02;103237.16;6312799;22;19915;-80
2022/03/22 07:35:23;;;;;;;;;;;;;;;18.58;41.79;103242.47;6287224;22;19911;-79
2022/03/22 07:37:52;;;;;;;;;;;;;;;18.58;41.76;103239.84;6312992;22;20243;-79
2022/03/22 07:40:18;;;;;;;;;;;;;;;18.58;41.79;103247.69;6287788;22;19910;-88
2022/03/22 07:42:44;;;;;;;;;;;;;;;18.60;41.57;103238.16;6313132;22;19989;-88
2022/03/22 07:45:10;;;;;;;;;;;;;;;18.62;41.50;103244.31;6313002;22;19930;-88
2022/03/22 07:47:35;;;;;;;;;;;;;;;18.67;41.53;103244.41;6287845;22;19942;-88
2022/03/22 07:53:06;;;;;;;;;;;;;;;18.25;42.36;103255.53;6318950;22;19941;-88
2022/03/22 07:55:38;;;;;;;;;;;;;;;17.94;43.10;103251.22;6328989;22;19917;-88
2022/03/22 07:58:07;;;;;;;;;;;;;;;17.82;43.40;103250.03;6327483;22;19906;-90
2022/03/22 08:00:37;;;;;;;;;;;;;;;17.83;43.53;103254.44;6320929;22;19906;-87
2022/03/22 08:03:04;;;;;;;;;;;;;;;18.14;42.63;103251.75;6314171;22;19937;-88
2022/03/22 08:05:30;;;;;;;;;;;;;;;18.32;42.25;103257.44;6313573;22;19952;-88
2022/03/22 08:07:56;;;;;;;;;;;;;;;18.36;42.24;103256.69;6340782;22;19959;-88
2022/03/22 08:10:21;;;;;;;;;;;;;;;18.32;42.28;103251.38;6313026;22;20341;-88
2022/03/22 08:12:46;;;;;;;;;;;;;;;18.30;42.39;103248.72;6313395;22;19907;-87
2022/03/22 08:15:13;;;;;;;;;;;;;;;18.30;42.25;103251.31;6288816;22;19997;-87
2022/03/22 08:17:39;;;;;;;;;;;;;;;18.37;42.36;103252.34;6287574;22;19910;-87
2022/03/22 08:20:05;;;;;;;;;;;;;;;18.45;42.14;103250.81;6313071;22;19919;-87
2022/03/22 08:22:32;;;;;;;;;;;;;;;18.47;41.90;103244.81;6312677;22;20212;-88
2022/03/22 08:24:58;;;;;;;;;;;;;;;18.43;42.12;103256.00;6287141;22;19940;-87
2022/03/22 08:27:23;;;;;;;;;;;;;;;18.40;42.16;103255.03;6312932;22;19907;-87
2022/03/22 08:29:51;;;;;;;;;;;;;;;18.45;42.11;103249.09;6312966;22;19912;-87
2022/03/22 08:32:16;;;;;;;;;;;;;;;18.47;42.13;103259.56;6313445;22;19990;-88
2022/03/22 08:34:41;;;;;;;;;;;;;;;18.42;42.30;103251.63;6341112;22;20319;-88
2022/03/22 08:37:07;;;;;;;;;;;;;;;18.38;42.31;103255.00;6313049;22;19917;-87
2022/03/22 08:39:32;;;;;;;;;;;;;;;18.34;42.42;103260.97;6288101;22;19911;-88
2022/03/22 08:41:58;;;;;;;;;;;;;;;18.33;42.38;103263.53;6287001;22;19961;-87
2022/03/22 08:44:23;;;;;;;;;;;;;;;18.28;42.50;103264.28;6340601;22;19960;-88
2022/03/22 08:46:51;;;;;;;;;;;;;;;18.31;42.74;103266.09;6312766;22;19994;-88
2022/03/22 08:49:16;;;;;;;;;;;;;;;18.27;42.63;103259.06;6312789;22;19934;-88
2022/03/22 08:51:41;;;;;;;;;;;;;;;18.25;42.65;103266.84;6340482;22;19918;-88
2022/03/22 08:54:07;;;;;;;;;;;;;;;18.20;42.75;103264.94;6312736;22;19910;-88
2022/03/22 08:56:32;;;;;;;;;;;;;;;18.22;42.80;103274.56;6312859;22;19906;-88
2022/03/22 08:58:57;;;;;;;;;;;;;;;18.17;42.96;103262.25;6287089;22;19910;-88
2022/03/22 09:01:27;;;;;;;;;;;;;;;18.17;43.08;103264.88;6313189;22;20274;-87
2022/03/22 09:06:39;;;;;;;;;;;;;;;18.12;43.04;103266.44;6339928;22;20371;-78
2022/03/22 09:09:05;;;;;;;;;;;;;;;18.14;43.17;103275.19;6311825;22;19963;-79
2022/03/22 09:11:31;;;;;;;;;;;;;;;18.12;43.16;103275.19;6312080;22;20373;-78
2022/03/22 09:13:56;;;;;;;;;;;;;;;18.10;43.22;103271.66;6312171;22;19911;-79
2022/03/22 09:16:22;;;;;;;;;;;;;;;18.06;43.30;103275.88;6312800;22;19910;-79
2022/03/22 09:18:47;;;;;;;;;;;;;;;18.05;43.37;103270.63;6341812;22;19907;-79
2022/03/22 09:21:12;;;;;;;;;;;;;;;18.03;43.50;103280.09;6288039;22;19922;-78
2022/03/22 09:23:40;;;;;;;;;;;;;;;18.02;43.42;103280.97;6287963;22;19991;-78
2022/03/22 09:26:05;;;;;;;;;;;;;;;17.98;43.50;103279.13;6313935;22;19913;-78
2022/03/22 09:28:31;;;;;;;;;;;;;;;17.97;43.42;103274.75;6313949;22;19910;-78
2022/03/22 09:30:57;;;;;;;;;;;;;;;17.95;43.77;103273.84;6288355;22;19911;-79
2022/03/22 09:33:22;;;;;;;;;;;;;;;17.93;43.60;103278.13;6314897;22;19960;-81
2022/03/22 09:35:48;;;;;;;;;;;;;;;17.92;43.73;103272.03;6315363;22;19910;-81
2022/03/22 09:38:14;;;;;;;;;;;;;;;17.91;43.66;103271.97;6314878;22;19910;-81
2022/03/22 09:40:39;;;;;;;;;;;;;;;17.88;43.95;103271.06;6314984;22;19929;-78
2022/03/22 09:43:04;;;;;;;;;;;;;;;17.87;43.76;103279.69;6288445;22;19936;-80
2022/03/22 09:45:31;;;;;;;;;;;;;;;17.87;43.65;103271.88;6316426;22;20327;-81
2022/03/22 09:47:59;;;;;;;;;;;;;;;17.86;43.68;103269.25;6314855;22;19907;-78
2022/03/22 09:53:11;;;;;;;;;;;;;;;17.85;43.89;103277.88;6341389;22;19914;-79
2022/03/22 09:55:36;;;;;;;;;;;;;;;17.82;44.00;103277.81;6313587;22;19978;-80
2022/03/22 09:58:02;;;;;;;;;;;;;;;17.80;43.99;103267.31;6313738;22;20018;-78
2022/03/22 10:00:27;;;;;;;;;;;;;;;17.80;43.78;103277.72;6313887;22;19910;-78
2022/03/22 10:02:52;;;;;;;;;;;;;;;17.78;43.82;103273.31;6288545;22;19921;-79
2022/03/22 10:05:22;;;;;;;;;;;;;;;17.79;43.97;103269.84;6288248;22;19914;-78
2022/03/22 10:07:54;;;;;;;;;;;;;;;17.77;43.98;103259.41;6341542;22;20413;-78
2022/03/22 10:10:20;;;;;;;;;;;;;;;17.78;43.73;103258.56;6314634;22;19930;-79
2022/03/22 10:12:54;;;;;;;;;;;;;;;17.79;43.91;103259.44;6314253;22;19910;-78
2022/03/22 10:15:20;;;;;;;;;;;;;;;17.80;43.64;103258.63;6314575;22;20334;-78
2022/03/22 10:17:46;;;;;;;;;;;;;;;17.79;43.78;103260.34;6288131;22;19946;-78
2022/03/22 10:20:22;;;;;;;;;;;;;;;17.79;43.71;103257.75;6313956;22;19907;-79
2022/03/22 10:22:55;;;;;;;;;;;;;;;17.80;43.67;103253.41;6313878;22;19985;-79
2022/03/22 10:25:20;;;;;;;;;;;;;;;17.79;43.81;103249.03;6313650;22;19910;-79
2022/03/22 10:27:46;;;;;;;;;;;;;;;17.79;43.84;103262.94;6313568;22;19913;-79
2022/03/22 10:30:12;;;;;;;;;;;;;;;17.80;43.71;103253.41;6313890;22;19906;-78
2022/03/22 10:32:39;;;;;;;;;;;;;;;17.78;43.67;103253.34;6313290;22;19973;-78
2022/03/22 10:35:11;;;;;;;;;;;;;;;17.80;43.84;103251.69;6313555;22;19979;-79
2022/03/22 10:37:37;;;;;;;;;;;;;;;17.79;43.78;103255.13;6341335;22;19907;-79
2022/03/22 10:40:02;;;;;;;;;;;;;;;17.79;43.73;103252.53;6288361;22;19910;-78
2022/03/22 10:42:29;;;;;;;;;;;;;;;17.81;43.84;103247.34;6287593;22;19956;-79
2022/03/22 10:44:58;;;;;;;;;;;;;;;17.80;43.88;103256.00;6287730;22;19918;-79
2022/03/22 10:47:26;;;;;;;;;;;;;;;17.80;43.88;103254.28;6313467;22;19963;-79
2022/03/22 10:50:07;;;;;;;;;;;;;;;17.81;43.91;103255.16;6341120;22;19910;-79
2022/03/22 10:52:33;;;;;;;;;;;;;;;17.80;43.63;103250.81;6313754;22;19929;-79
2022/03/22 10:54:59;;;;;;;;;;;;;;;17.79;43.92;103249.94;6314174;22;20303;-78
2022/03/22 10:57:32;;;;;;;;;;;;;;;17.79;43.77;103252.53;6343259;22;19952;-79
2022/03/22 11:00:03;;;;;;;;;;;;;;;17.80;43.96;103256.00;6314594;22;19937;-79
2022/03/22 11:02:31;;;;;;;;;;;;;;;17.80;43.90;103254.28;6313823;22;19936;-79
2022/03/22 11:04:58;;;;;;;;;;;;;;;17.81;43.88;103255.16;6341567;22;19906;-87
2022/03/22 11:07:25;;;;;;;;;;;;;;;17.82;43.92;103255.25;6314290;22;20242;-88
2022/03/22 11:09:51;;;;;;;;;;;;;;;17.83;43.77;103250.91;6313820;22;19934;-88
2022/03/22 11:12:18;;;;;;;;;;;;;;;17.82;43.83;103251.75;6288361;22;20289;-88
2022/03/22 11:14:44;;;;;;;;;;;;;;;17.80;43.88;103243.00;6315125;22;19981;-88
2022/03/22 11:17:10;;;;;;;;;;;;;;;17.82;43.91;103247.44;6314675;22;20350;-87
2022/03/22 11:19:35;;;;;;;;;;;;;;;17.81;43.96;103236.94;6288412;22;19963;-88
2022/03/22 11:22:08;;;;;;;;;;;;;;;17.81;43.98;103235.22;6288497;22;20254;-86
2022/03/22 11:24:36;;;;;;;;;;;;;;;17.80;43.93;103236.06;6342136;22;19918;-87
2022/03/22 11:27:05;;;;;;;;;;;;;;;17.82;43.82;103238.75;6314637;22;19913;-88
2022/03/22 11:29:32;;;;;;;;;;;;;;;17.81;43.95;103236.94;6315169;22;19906;-86
2022/03/22 11:34:42;;;;;;;;;;;;;;;17.81;43.91;103235.22;6356551;22;19933;-88
2022/03/22 11:37:08;;;;;;;;;;;;;;;17.82;44.01;103239.63;6293138;22;19911;-88
2022/03/22 11:42:19;;;;;;;;;;;;;;;17.83;43.85;103232.69;6345542;22;19990;-87
2022/03/22 11:45:02;;;;;;;;;;;;;;;17.83;43.92;103232.69;6317623;22;20239;-87
2022/03/22 11:47:40;;;;;;;;;;;;;;;17.82;44.03;103230.94;6343088;22;20310;-87
2022/03/22 11:50:07;;;;;;;;;;;;;;;17.83;44.06;103238.78;6314799;22;19906;-86
2022/03/22 11:52:32;;;;;;;;;;;;;;;17.83;44.03;103238.78;6313774;22;19907;-87
2022/03/22 11:54:59;;;;;;;;;;;;;;;17.83;43.91;103233.59;6341471;22;20230;-88
2022/03/22 11:57:25;;;;;;;;;;;;;;;17.83;43.81;103235.28;6314522;22;19981;-86
2022/03/22 11:59:54;;;;;;;;;;;;;;;17.83;43.88;103225.78;6341765;22;19907;-88
2022/03/22 12:02:22;;;;;;;;;;;;;;;17.85;43.92;103225.78;6314627;22;19914;-87
2022/03/22 12:04:51;;;;;;;;;;;;;;;17.84;43.96;103230.13;6313222;22;19916;-87
2022/03/22 12:07:30;;;;;;;;;;;;;;;17.85;44.23;103229.28;6314006;22;20303;-86
2022/03/22 12:10:04;;;;;;;;;;;;;;;17.85;43.95;103224.06;6341564;22;19914;-88
2022/03/22 12:12:30;;;;;;;;;;;;;;;17.85;43.91;103223.19;6341860;22;20332;-86
2022/03/22 12:14:57;;;;;;;;;;;;;;;17.86;44.10;103224.97;6313485;22;19930;-87
2022/03/22 12:17:22;;;;;;;;;;;;;;;17.85;44.20;103223.19;6314014;22;19911;-88
2022/03/22 12:19:48;;;;;;;;;;;;;;;17.85;44.10;103211.03;6287685;22;19911;-88
2022/03/22 12:22:13;;;;;;;;;;;;;;;17.84;44.13;103214.50;6287162;22;19984;-88
2022/03/22 12:24:39;;;;;;;;;;;;;;;17.85;44.04;103210.16;6341329;22;19946;-87
2022/03/22 12:27:07;;;;;;;;;;;;;;;17.86;44.00;103210.22;6313483;22;19907;-87
2022/03/22 12:29:37;;;;;;;;;;;;;;;17.86;44.28;103201.53;6313834;22;20268;-87
2022/03/22 12:32:06;;;;;;;;;;;;;;;17.87;44.25;103208.47;6313650;22;19911;-87
2022/03/22 12:34:34;;;;;;;;;;;;;;;17.88;44.10;103205.06;6288706;22;19921;-87
2022/03/22 12:36:59;;;;;;;;;;;;;;;17.91;44.08;103199.91;6312822;22;20287;-78
2022/03/22 12:39:25;;;;;;;;;;;;;;;17.91;43.99;103196.44;6286963;22;19911;-79
2022/03/22 12:41:50;;;;;;;;;;;;;;;17.91;44.22;103191.22;6312311;22;20350;-79
2022/03/22 12:44:16;;;;;;;;;;;;;;;17.93;44.01;103192.16;6313089;22;19921;-78
2022/03/22 12:46:41;;;;;;;;;;;;;;;17.92;44.21;103191.28;6312505;22;19936;-78
2022/03/22 12:49:07;;;;;;;;;;;;;;;17.94;44.14;103191.28;6312949;22;20384;-80
2022/03/22 12:51:32;;;;;;;;;;;;;;;17.95;44.17;103185.25;6287285;22;19938;-80
2022/03/22 12:54:01;;;;;;;;;;;;;;;17.94;43.98;103189.56;6314838;22;19933;-80
2022/03/22 12:56:27;;;;;;;;;;;;;;;17.93;44.19;103179.13;6315029;22;19938;-79
2022/03/22 12:58:52;;;;;;;;;;;;;;;17.94;44.24;103186.09;6315124;22;19918;-81
2022/03/22 13:01:18;;;;;;;;;;;;;;;17.94;44.25;103173.94;6315058;22;19991;-78
2022/03/22 13:03:44;;;;;;;;;;;;;;;17.94;44.04;103173.94;6314451;22;19937;-79
2022/03/22 13:06:10;;;;;;;;;;;;;;;17.96;44.15;103177.47;6314220;22;19907;-78
2022/03/22 13:11:26;;;;;;;;;;;;;;;17.98;44.04;103172.31;6343314;22;19959;-82
2022/03/22 13:16:36;;;;;;;;;;;;;;;17.98;44.04;103165.34;6345676;22;19928;-81